createdAt,value
2022-11-09T00:01:30.116Z,96871.34
2022-11-09T00:04:00.252Z,96882.63
2022-11-09T00:06:29.528Z,96884.19
2022-11-09T00:09:01.323Z,96882.16
2022-11-09T00:11:35.053Z,96884.19
2022-11-09T00:14:05.318Z,96880.75
2022-11-09T00:16:33.732Z,96885.84
2022-11-09T00:19:02.011Z,96887.72
2022-11-09T00:21:30.143Z,96881.06
2022-11-09T00:23:58.483Z,96874.28
2022-11-09T00:26:27.385Z,96883.00
2022-11-09T00:28:55.535Z,96875.22
2022-11-09T00:31:26.003Z,96881.38
2022-11-09T00:33:55.535Z,96871.03
2022-11-09T00:36:25.602Z,96887.16
2022-11-09T00:38:55.441Z,96882.88
2022-11-09T00:41:24.150Z,96879.50
2022-11-09T00:43:52.818Z,96876.81
2022-11-09T00:46:22.111Z,96873.84
2022-11-09T00:48:55.744Z,96901.25
2022-11-09T00:51:24.066Z,96880.50
2022-11-09T00:53:55.164Z,96885.00
2022-11-09T00:56:24.565Z,96887.16
2022-11-09T00:58:55.782Z,96891.38
2022-11-09T01:01:24.442Z,96892.22
2022-11-09T01:03:54.068Z,96888.28
2022-11-09T01:06:25.281Z,96883.94
2022-11-09T01:08:54.011Z,96890.31
2022-11-09T01:11:23.509Z,96881.47
2022-11-09T01:13:53.992Z,96882.50
2022-11-09T01:16:24.413Z,96883.25
2022-11-09T01:18:55.509Z,96890.06
2022-11-09T01:21:26.561Z,96890.16
2022-11-09T01:23:54.817Z,96889.22
2022-11-09T01:26:23.364Z,96886.81
2022-11-09T01:28:52.652Z,96894.59
2022-11-09T01:31:22.643Z,96893.69
2022-11-09T01:33:51.257Z,96888.69
2022-11-09T01:36:22.976Z,96890.00
2022-11-09T01:38:51.736Z,96888.03
2022-11-09T01:41:21.815Z,96888.38
2022-11-09T01:44:11.668Z,96887.16
2022-11-09T01:46:48.273Z,96898.00
2022-11-09T01:49:23.851Z,96900.94
2022-11-09T01:51:57.868Z,96893.69
2022-11-09T01:54:30.135Z,96892.25
2022-11-09T01:57:02.243Z,96880.88
2022-11-09T01:59:35.089Z,96884.69
2022-11-09T02:02:03.861Z,96881.13
2022-11-09T02:04:36.205Z,96887.34
2022-11-09T02:07:07.084Z,96881.56
2022-11-09T02:09:41.100Z,96866.75
2022-11-09T02:12:10.942Z,96875.06
2022-11-09T02:14:40.102Z,96875.50
2022-11-09T02:17:09.013Z,96868.25
2022-11-09T02:19:36.999Z,96870.50
2022-11-09T02:22:08.561Z,96867.03
2022-11-09T02:24:36.766Z,96876.88
2022-11-09T02:27:07.127Z,96870.25
2022-11-09T02:29:38.305Z,96879.03
2022-11-09T02:32:13.597Z,96873.59
2022-11-09T02:34:41.758Z,96887.16
2022-11-09T02:37:11.318Z,96878.47
2022-11-09T02:39:39.965Z,96877.81
2022-11-09T02:42:15.757Z,96872.22
2022-11-09T02:44:52.243Z,96877.84
2022-11-09T02:47:20.260Z,96878.94
2022-11-09T02:49:50.125Z,96878.97
2022-11-09T02:52:21.628Z,96880.00
2022-11-09T02:54:49.641Z,96882.69
2022-11-09T02:57:18.447Z,96880.97
2022-11-09T02:59:46.783Z,96879.38
2022-11-09T03:02:15.190Z,96880.22
2022-11-09T03:04:43.247Z,96871.84
2022-11-09T03:07:11.792Z,96866.25
2022-11-09T03:09:42.492Z,96866.50
2022-11-09T03:12:29.299Z,96873.06
2022-11-09T03:15:03.396Z,96865.47
2022-11-09T03:17:33.580Z,96863.56
2022-11-09T03:20:02.045Z,96868.06
2022-11-09T03:22:30.278Z,96864.38
2022-11-09T03:25:00.134Z,96864.81
2022-11-09T03:27:28.729Z,96862.38
2022-11-09T03:29:56.789Z,96853.84
2022-11-09T03:32:25.606Z,96855.41
2022-11-09T03:34:54.067Z,96859.16
2022-11-09T03:37:22.175Z,96862.84
2022-11-09T03:39:50.433Z,96867.25
2022-11-09T03:42:19.837Z,96858.47
2022-11-09T03:44:47.931Z,96859.75
2022-11-09T03:47:16.098Z,96872.63
2022-11-09T03:49:44.051Z,96860.00
2022-11-09T03:52:12.424Z,96859.38
2022-11-09T03:54:42.116Z,96859.31
2022-11-09T03:57:10.241Z,96857.75
2022-11-09T03:59:39.637Z,96850.47
2022-11-09T04:02:07.795Z,96846.09
2022-11-09T04:04:35.950Z,96840.19
2022-11-09T04:07:03.960Z,96834.88
2022-11-09T04:09:32.618Z,96841.66
2022-11-09T04:12:00.526Z,96831.56
2022-11-09T04:14:28.386Z,96829.31
2022-11-09T04:16:57.846Z,96847.88
2022-11-09T04:19:25.771Z,96834.38
2022-11-09T04:21:53.793Z,96826.88
2022-11-09T04:24:21.736Z,96828.59
2022-11-09T04:26:50.213Z,96816.75
2022-11-09T04:29:18.476Z,96817.56
2022-11-09T04:31:46.516Z,96826.97
2022-11-09T04:34:16.046Z,96846.09
2022-11-09T04:36:45.293Z,96846.78
2022-11-09T04:39:13.348Z,96838.66
2022-11-09T04:41:41.574Z,96853.69
2022-11-09T04:44:09.864Z,96851.66
2022-11-09T04:46:37.960Z,96845.16
2022-11-09T04:49:05.966Z,96845.91
2022-11-09T04:51:35.397Z,96852.75
2022-11-09T04:54:03.442Z,96840.88
2022-11-09T04:56:31.449Z,96832.69
2022-11-09T04:59:49.535Z,96832.38
2022-11-09T05:02:17.950Z,96838.34
2022-11-09T05:04:46.239Z,96843.50
2022-11-09T05:07:17.869Z,96839.41
2022-11-09T05:09:45.916Z,96840.53
2022-11-09T05:12:14.311Z,96843.09
2022-11-09T05:14:42.348Z,96837.09
2022-11-09T05:17:10.474Z,96846.34
2022-11-09T05:19:38.635Z,96830.78
2022-11-09T05:22:22.119Z,96838.41
2022-11-09T05:24:56.497Z,96842.06
2022-11-09T05:27:24.580Z,96838.31
2022-11-09T05:29:52.537Z,96836.06
2022-11-09T05:32:20.542Z,96836.41
2022-11-09T05:34:48.704Z,96845.47
2022-11-09T05:37:17.607Z,96834.50
2022-11-09T05:39:45.577Z,96827.91
2022-11-09T05:42:15.304Z,96831.22
2022-11-09T05:44:43.294Z,96835.38
2022-11-09T05:47:11.356Z,96822.06
2022-11-09T05:49:39.504Z,96829.03
2022-11-09T05:52:07.727Z,96839.16
2022-11-09T05:54:35.620Z,96847.28
2022-11-09T05:57:03.684Z,96846.34
2022-11-09T05:59:33.044Z,96863.41
2022-11-09T06:02:01.222Z,96856.75
2022-11-09T06:04:29.524Z,96858.56
2022-11-09T06:06:57.523Z,96854.84
2022-11-09T06:09:25.685Z,96853.13
2022-11-09T06:11:53.672Z,96860.25
2022-11-09T06:14:21.665Z,96862.81
2022-11-09T06:16:51.310Z,96867.94
2022-11-09T06:19:19.286Z,96866.69
2022-11-09T06:21:47.435Z,96871.25
2022-11-09T06:24:15.723Z,96867.22
2022-11-09T06:26:44.107Z,96861.31
2022-11-09T06:29:12.068Z,96862.63
2022-11-09T06:31:40.106Z,96867.81
2022-11-09T06:34:10.256Z,96873.53
2022-11-09T06:36:38.381Z,96875.81
2022-11-09T06:39:08.857Z,96874.63
2022-11-09T06:41:37.155Z,96871.66
2022-11-09T06:44:06.443Z,96869.28
2022-11-09T06:46:35.027Z,96878.22
2022-11-09T06:49:03.040Z,96873.75
2022-11-09T06:51:32.485Z,96874.97
2022-11-09T06:54:00.793Z,96879.13
2022-11-09T06:56:28.897Z,96868.59
2022-11-09T06:58:56.895Z,96874.53
2022-11-09T07:01:29.780Z,96871.69
2022-11-09T07:03:58.202Z,96874.88
2022-11-09T07:06:26.368Z,96877.78
2022-11-09T07:08:58.190Z,96873.53
2022-11-09T07:11:26.166Z,96882.41
2022-11-09T07:13:57.441Z,96889.69
2022-11-09T07:16:26.073Z,96893.47
2022-11-09T07:18:54.601Z,96890.00
2022-11-09T07:21:22.709Z,96886.06
2022-11-09T07:23:51.131Z,96889.28
2022-11-09T07:26:20.577Z,96891.16
2022-11-09T07:28:48.619Z,96898.50
2022-11-09T07:31:16.880Z,96896.31
2022-11-09T07:33:44.912Z,96889.25
2022-11-09T07:36:18.241Z,96897.44
2022-11-09T07:38:48.957Z,96900.09
2022-11-09T07:41:17.120Z,96906.00
2022-11-09T07:43:46.724Z,96904.75
2022-11-09T07:46:14.724Z,96909.94
2022-11-09T07:48:42.760Z,96917.81
2022-11-09T07:51:10.822Z,96913.81
2022-11-09T07:53:39.546Z,96911.28
2022-11-09T07:56:07.927Z,96910.69
2022-11-09T07:58:37.013Z,96910.13
2022-11-09T08:01:10.149Z,96909.81
2022-11-09T08:03:38.529Z,96909.00
2022-11-09T08:06:07.030Z,96916.63
2022-11-09T08:08:35.343Z,96916.75
2022-11-09T08:11:03.422Z,96919.59
2022-11-09T08:13:31.439Z,96918.78
2022-11-09T08:16:02.101Z,96926.97
2022-11-09T08:18:31.612Z,96930.69
2022-11-09T08:21:02.626Z,96938.47
2022-11-09T08:23:30.980Z,96935.38
2022-11-09T08:26:02.843Z,96928.34
2022-11-09T08:28:31.131Z,96923.66
2022-11-09T08:31:01.130Z,96931.81
2022-11-09T08:33:34.913Z,96932.75
2022-11-09T08:36:03.058Z,96925.34
2022-11-09T08:38:33.247Z,96932.88
2022-11-09T08:41:01.377Z,96928.22
2022-11-09T08:43:29.493Z,96922.09
2022-11-09T08:45:57.712Z,96923.41
2022-11-09T08:48:26.095Z,96928.50
2022-11-09T08:50:56.922Z,96933.56
2022-11-09T08:53:26.103Z,96941.19
2022-11-09T08:55:54.306Z,96953.22
2022-11-09T08:58:23.587Z,96960.72
2022-11-09T09:00:51.787Z,96973.56
2022-11-09T09:03:19.915Z,96964.28
2022-11-09T09:05:48.104Z,96973.19
2022-11-09T09:08:21.964Z,96977.03
2022-11-09T09:10:50.430Z,96972.66
2022-11-09T09:13:19.444Z,96984.41
2022-11-09T09:15:47.581Z,96984.63
2022-11-09T09:18:16.052Z,96980.66
2022-11-09T09:20:44.140Z,96989.38
2022-11-09T09:23:14.243Z,96978.88
2022-11-09T09:25:43.690Z,96985.50
2022-11-09T09:28:11.841Z,96991.00
2022-11-09T09:30:39.856Z,96992.53
2022-11-09T09:33:07.923Z,96988.28
2022-11-09T09:35:36.088Z,96991.03
2022-11-09T09:38:04.324Z,96980.41
2022-11-09T09:40:53.723Z,96980.72
2022-11-09T09:43:32.199Z,96985.25
2022-11-09T09:46:03.195Z,96980.47
2022-11-09T09:48:37.906Z,96985.97
2022-11-09T09:51:13.056Z,96993.44
2022-11-09T09:53:47.605Z,97002.28
2022-11-09T09:56:22.907Z,96996.59
2022-11-09T09:59:11.078Z,97012.69
2022-11-09T10:01:40.691Z,97004.28
2022-11-09T10:04:18.189Z,97004.69
2022-11-09T10:07:01.068Z,97001.16
2022-11-09T10:09:39.718Z,97007.91
2022-11-09T10:12:19.368Z,97001.97
2022-11-09T10:15:04.583Z,96992.66
2022-11-09T10:17:41.656Z,96977.78
2022-11-09T10:20:28.571Z,96982.84
2022-11-09T10:23:08.176Z,96979.38
2022-11-09T10:28:47.589Z,96949.91
2022-11-09T10:31:21.273Z,96947.72
2022-11-09T10:33:54.956Z,96956.13
2022-11-09T10:36:28.622Z,96948.44
2022-11-09T10:39:01.810Z,96931.47
2022-11-09T10:41:48.686Z,96931.03
2022-11-09T10:44:37.056Z,96929.53
2022-11-09T10:47:24.193Z,96925.97
2022-11-09T10:50:22.722Z,96925.97
2022-11-09T10:53:15.689Z,96934.47
2022-11-09T10:56:20.313Z,96935.63
2022-11-09T10:59:36.490Z,96922.56
2022-11-09T11:02:50.013Z,96921.19
2022-11-09T11:05:37.370Z,96919.22
2022-11-09T11:08:27.765Z,96914.53
2022-11-09T11:11:34.956Z,96911.31
2022-11-09T11:14:30.408Z,96910.91
2022-11-09T11:17:27.956Z,96907.88
2022-11-09T11:20:32.539Z,96900.25
2022-11-09T11:23:21.593Z,96902.28
2022-11-09T11:26:31.498Z,96895.63
2022-11-09T11:29:33.728Z,96887.97
2022-11-09T11:32:21.600Z,96895.91
2022-11-09T11:35:14.912Z,96894.63
2022-11-09T11:38:17.380Z,96894.69
2022-11-09T11:41:21.585Z,96881.34
2022-11-09T11:44:18.675Z,96889.88
2022-11-09T11:47:11.254Z,96880.16
2022-11-09T11:50:26.416Z,96867.31
2022-11-09T11:53:28.331Z,96878.56
2022-11-09T11:56:23.425Z,96873.53
2022-11-09T11:59:48.064Z,96878.84
2022-11-09T12:03:10.874Z,96886.56
2022-11-09T12:06:12.118Z,96893.78
2022-11-09T12:09:10.509Z,96901.72
2022-11-09T12:12:12.267Z,96895.75
2022-11-09T12:15:22.164Z,96884.63
2022-11-09T12:18:18.190Z,96886.69
2022-11-09T12:21:15.675Z,96894.28
2022-11-09T12:24:16.662Z,96878.16
2022-11-09T12:27:39.722Z,96870.56
2022-11-09T12:30:37.096Z,96866.84
2022-11-09T12:33:33.654Z,96860.03
2022-11-09T12:36:25.528Z,96866.78
2022-11-09T12:39:21.332Z,96860.16
2022-11-09T12:42:12.564Z,96862.41
2022-11-09T12:45:06.099Z,96849.50
2022-11-09T12:47:54.801Z,96865.94
2022-11-09T12:50:42.827Z,96866.34
2022-11-09T12:53:33.612Z,96867.59
2022-11-09T12:56:25.786Z,96863.13
2022-11-09T12:59:36.879Z,96849.13
2022-11-09T13:02:29.484Z,96847.84
2022-11-09T13:05:30.786Z,96838.03
2022-11-09T13:08:22.391Z,96843.59
2022-11-09T13:11:12.351Z,96844.97
2022-11-09T13:14:33.347Z,96842.44
2022-11-09T13:18:02.882Z,96851.03
2022-11-09T13:20:57.017Z,96843.97
2022-11-09T13:24:03.462Z,96838.41
2022-11-09T13:27:00.249Z,96850.28
2022-11-09T13:29:56.110Z,96850.31
2022-11-09T13:33:33.565Z,96851.22
2022-11-09T13:36:22.209Z,96848.59
2022-11-09T13:39:32.151Z,96858.06
2022-11-09T13:42:31.124Z,96855.63
2022-11-09T13:45:26.952Z,96842.72
2022-11-09T13:48:36.051Z,96837.25
2022-11-09T13:51:38.369Z,96846.75
2022-11-09T13:54:32.694Z,96842.38
2022-11-09T13:57:18.940Z,96845.78
2022-11-09T14:00:07.398Z,96843.38
2022-11-09T14:03:00.220Z,96844.16
2022-11-09T14:05:49.848Z,96846.38
2022-11-09T14:08:41.714Z,96848.16
2022-11-09T14:11:51.850Z,96852.16
2022-11-09T14:15:06.097Z,96850.28
2022-11-09T14:18:07.918Z,96851.63
2022-11-09T14:21:01.433Z,96861.47
2022-11-09T14:23:49.411Z,96849.28
2022-11-09T14:26:36.167Z,96846.59
2022-11-09T14:29:24.335Z,96848.34
2022-11-09T14:32:24.732Z,96850.19
2022-11-09T14:35:23.988Z,96854.25
2022-11-09T14:38:19.128Z,96861.66
2022-11-09T14:41:20.423Z,96865.16
2022-11-09T14:44:07.642Z,96872.66
2022-11-09T14:46:54.673Z,96874.88
2022-11-09T14:49:41.907Z,96874.00
2022-11-09T14:52:30.961Z,96873.28
2022-11-09T14:55:19.844Z,96883.41
2022-11-09T14:58:13.420Z,96887.09
2022-11-09T15:01:11.675Z,96890.41
2022-11-09T15:04:11.096Z,96884.56
2022-11-09T15:07:00.425Z,96883.31
2022-11-09T15:09:49.392Z,96879.47
2022-11-09T15:12:39.197Z,96889.34
2022-11-09T15:15:32.483Z,96876.44
2022-11-09T15:18:22.462Z,96880.28
2022-11-09T15:21:18.679Z,96880.88
2022-11-09T15:24:15.324Z,96888.00
2022-11-09T15:27:01.857Z,96885.78
2022-11-09T15:29:49.255Z,96883.13
2022-11-09T15:32:40.496Z,96882.72
2022-11-09T15:35:27.931Z,96892.03
2022-11-09T15:38:30.602Z,96895.44
2022-11-09T15:41:20.178Z,96899.19
2022-11-09T15:44:07.828Z,96903.72
2022-11-09T15:46:54.981Z,96902.69
2022-11-09T15:49:42.577Z,96898.19
2022-11-09T15:52:29.297Z,96908.34
2022-11-09T15:55:18.272Z,96911.94
2022-11-09T15:58:05.343Z,96903.19
2022-11-09T16:00:52.370Z,96901.59
2022-11-09T16:03:39.395Z,96908.31
2022-11-09T16:06:27.562Z,96906.06
2022-11-09T16:09:14.391Z,96912.50
2022-11-09T16:12:01.010Z,96921.03
2022-11-09T16:14:47.400Z,96915.97
2022-11-09T16:17:34.280Z,96918.72
2022-11-09T16:20:21.887Z,96928.50
2022-11-09T16:23:09.604Z,96932.53
2022-11-09T16:25:56.207Z,96926.59
2022-11-09T16:28:43.544Z,96935.13
2022-11-09T16:31:50.376Z,96937.59
2022-11-09T16:34:37.035Z,96930.72
2022-11-09T16:37:24.719Z,96927.56
2022-11-09T16:40:14.824Z,96927.69
2022-11-09T16:43:01.946Z,96929.66
2022-11-09T16:45:51.253Z,96927.00
2022-11-09T16:48:37.995Z,96933.88
2022-11-09T16:51:24.562Z,96937.66
2022-11-09T16:54:11.868Z,96939.66
2022-11-09T16:57:00.786Z,96938.63
2022-11-09T16:59:47.539Z,96952.56
2022-11-09T17:02:34.996Z,96952.94
2022-11-09T17:05:21.979Z,96962.03
2022-11-09T17:08:09.081Z,96954.63
2022-11-09T17:10:56.604Z,96967.53
2022-11-09T17:13:44.624Z,96964.03
2022-11-09T17:16:31.278Z,96965.34
2022-11-09T17:19:17.688Z,96961.94
2022-11-09T17:22:05.041Z,96960.94
2022-11-09T17:24:51.709Z,96978.38
2022-11-09T17:27:39.274Z,96965.22
2022-11-09T17:30:26.862Z,96971.06
2022-11-09T17:33:13.575Z,96972.31
2022-11-09T17:36:00.930Z,96977.63
2022-11-09T17:38:47.543Z,96990.00
2022-11-09T17:41:37.458Z,96985.88
2022-11-09T17:44:27.550Z,96987.53
2022-11-09T17:47:15.628Z,96981.00
2022-11-09T17:50:02.457Z,96985.63
2022-11-09T17:52:50.440Z,96997.25
2022-11-09T17:55:38.394Z,97001.22
2022-11-09T17:58:25.958Z,96996.44
2022-11-09T18:01:14.971Z,96990.88
2022-11-09T18:04:06.348Z,96999.22
2022-11-09T18:06:53.223Z,97001.31
2022-11-09T18:09:42.084Z,97007.09
2022-11-09T18:12:29.710Z,97009.41
2022-11-09T18:15:16.115Z,96998.13
2022-11-09T18:18:02.770Z,97000.59
2022-11-09T18:20:51.270Z,96992.28
2022-11-09T18:23:38.058Z,97003.78
2022-11-09T18:26:24.608Z,96997.19
2022-11-09T18:29:11.390Z,97002.72
2022-11-09T18:31:58.257Z,97007.94
2022-11-09T18:34:45.517Z,97004.91
2022-11-09T18:37:35.901Z,97005.03
2022-11-09T18:40:22.492Z,97003.00
2022-11-09T18:43:08.860Z,97007.28
2022-11-09T18:45:57.502Z,96996.41
2022-11-09T18:48:44.906Z,97009.00
2022-11-09T18:51:32.171Z,96997.28
2022-11-09T18:54:20.069Z,97003.19
2022-11-09T18:57:06.889Z,97007.13
2022-11-09T18:59:54.041Z,97006.03
2022-11-09T19:02:40.791Z,97012.38
2022-11-09T19:05:27.317Z,97003.78
2022-11-09T19:08:14.783Z,97011.47
2022-11-09T19:11:07.262Z,97013.56
2022-11-09T19:13:54.923Z,97016.53
2022-11-09T19:16:42.971Z,97025.06
2022-11-09T19:19:29.854Z,97027.84
2022-11-09T19:22:19.320Z,97024.75
2022-11-09T19:25:06.852Z,97029.78
2022-11-09T19:27:55.094Z,97026.06
2022-11-09T19:30:42.043Z,97018.25
2022-11-09T19:33:28.513Z,97025.34
2022-11-09T19:36:29.844Z,97024.34
2022-11-09T19:39:17.647Z,97035.47
2022-11-09T19:42:05.413Z,97020.91
2022-11-09T19:44:56.425Z,97024.00
2022-11-09T19:47:43.793Z,97030.28
2022-11-09T19:50:30.421Z,97022.44
2022-11-09T19:53:17.462Z,97023.38
2022-11-09T19:56:08.597Z,97035.78
2022-11-09T19:58:57.598Z,97024.50
2022-11-09T20:01:45.847Z,97027.81
2022-11-09T20:04:33.150Z,97036.16
2022-11-09T20:07:20.219Z,97039.63
2022-11-09T20:10:09.062Z,97036.88
2022-11-09T20:12:55.562Z,97043.59
2022-11-09T20:15:42.763Z,97044.88
2022-11-09T20:18:31.089Z,97049.22
2022-11-09T20:21:17.952Z,97053.44
2022-11-09T20:24:04.501Z,97068.63
2022-11-09T20:26:51.226Z,97059.63
2022-11-09T20:29:37.892Z,97063.72
2022-11-09T20:32:25.414Z,97065.06
2022-11-09T20:35:13.845Z,97071.88
2022-11-09T20:38:00.895Z,97071.56
2022-11-09T20:40:54.558Z,97064.47
2022-11-09T20:43:41.062Z,97062.44
2022-11-09T20:46:32.720Z,97067.19
2022-11-09T20:49:22.654Z,97067.13
2022-11-09T20:52:10.977Z,97061.44
2022-11-09T20:54:57.314Z,97067.22
2022-11-09T20:57:43.656Z,97073.53
2022-11-09T21:00:30.990Z,97079.19
2022-11-09T21:03:17.799Z,97080.03
2022-11-09T21:06:06.629Z,97073.66
2022-11-09T21:08:57.016Z,97082.84
2022-11-09T21:11:57.420Z,97083.66
2022-11-09T21:14:44.836Z,97085.78
2022-11-09T21:17:32.379Z,97080.19
2022-11-09T21:20:18.947Z,97076.06
2022-11-09T21:23:23.537Z,97082.69
2022-11-09T21:26:29.311Z,97078.41
2022-11-09T21:29:34.495Z,97086.59
2022-11-09T21:32:25.478Z,97085.97
2022-11-09T21:35:12.456Z,97098.88
2022-11-09T21:37:59.470Z,97091.06
2022-11-09T21:40:46.856Z,97089.66
2022-11-09T21:43:35.063Z,97084.44
2022-11-09T21:46:21.997Z,97088.50
2022-11-09T21:49:09.913Z,97083.63
2022-11-09T21:51:56.613Z,97082.34
2022-11-09T21:54:43.388Z,97084.38
2022-11-09T21:57:30.395Z,97089.78
2022-11-09T22:00:19.864Z,97088.22
2022-11-09T22:03:06.420Z,97095.19
2022-11-09T22:05:52.796Z,97097.25
2022-11-09T22:08:39.926Z,97089.34
2022-11-09T22:11:42.079Z,97099.13
2022-11-09T22:14:46.869Z,97103.50
2022-11-09T22:17:34.941Z,97107.91
2022-11-09T22:20:39.072Z,97101.88
2022-11-09T22:23:25.528Z,97108.13
2022-11-09T22:26:12.105Z,97103.41
2022-11-09T22:28:58.693Z,97105.44
2022-11-09T22:31:47.723Z,97108.81
2022-11-09T22:34:35.603Z,97117.84
2022-11-09T22:37:23.152Z,97112.44
2022-11-09T22:40:11.258Z,97113.31
2022-11-09T22:42:58.300Z,97121.13
2022-11-09T22:45:44.906Z,97125.41
2022-11-09T22:48:32.372Z,97132.53
2022-11-09T22:51:20.489Z,97135.50
2022-11-09T22:54:07.248Z,97136.34
2022-11-09T22:57:13.486Z,97154.59
2022-11-09T22:59:59.994Z,97158.16
2022-11-09T23:02:47.107Z,97157.47
2022-11-09T23:05:34.875Z,97160.22
2022-11-09T23:08:23.157Z,97166.06
2022-11-09T23:11:13.984Z,97167.19
2022-11-09T23:14:00.952Z,97165.22
2022-11-09T23:16:47.732Z,97174.34
2022-11-09T23:19:32.936Z,97171.16
2022-11-09T23:22:19.507Z,97168.19
2022-11-09T23:25:27.175Z,97171.06
2022-11-09T23:28:14.020Z,97167.41
2022-11-09T23:31:01.322Z,97162.47
2022-11-09T23:33:49.149Z,97155.63
2022-11-09T23:36:35.467Z,97154.41
2022-11-09T23:39:22.790Z,97147.47
2022-11-09T23:42:10.838Z,97141.53
2022-11-09T23:44:57.420Z,97128.88
2022-11-09T23:47:43.848Z,97127.00
2022-11-09T23:50:30.969Z,97134.66
2022-11-09T23:53:18.045Z,97135.22
2022-11-09T23:56:07.831Z,97129.72
2022-11-09T23:58:56.104Z,97137.56
